createdAt,value
2023-02-14T00:01:52.015Z,5.00
2023-02-14T00:04:19.118Z,5.00
2023-02-14T00:06:45.850Z,5.02
2023-02-14T00:09:15.296Z,5.00
2023-02-14T00:11:42.206Z,5.00
2023-02-14T00:14:27.194Z,5.04
2023-02-14T00:16:53.875Z,5.07
2023-02-14T00:19:21.024Z,5.10
2023-02-14T00:21:47.905Z,5.10
2023-02-14T00:24:15.611Z,5.08
2023-02-14T00:26:42.732Z,5.02
2023-02-14T00:29:11.076Z,5.01
2023-02-14T00:31:38.718Z,5.01
2023-02-14T00:34:06.014Z,5.04
2023-02-14T00:36:32.711Z,5.04
2023-02-14T00:38:59.202Z,5.01
2023-02-14T00:41:25.649Z,5.00
2023-02-14T00:43:52.754Z,4.97
2023-02-14T00:46:20.005Z,4.97
2023-02-14T00:48:46.821Z,4.96
2023-02-14T00:51:13.737Z,4.95
2023-02-14T00:53:40.693Z,4.91
2023-02-14T00:56:07.910Z,4.93
2023-02-14T00:58:34.282Z,4.91
2023-02-14T01:01:01.285Z,4.97
2023-02-14T01:03:28.300Z,4.98
2023-02-14T01:05:54.656Z,4.96
2023-02-14T01:08:21.551Z,4.93
2023-02-14T01:10:47.937Z,4.91
2023-02-14T01:13:14.301Z,4.87
2023-02-14T01:15:45.557Z,4.82
2023-02-14T01:18:12.345Z,4.83
2023-02-14T01:20:39.926Z,4.81
2023-02-14T01:23:06.422Z,4.75
2023-02-14T01:25:33.139Z,4.69
2023-02-14T01:27:59.710Z,4.64
2023-02-14T01:30:26.230Z,4.60
2023-02-14T01:32:52.917Z,4.61
2023-02-14T01:35:19.379Z,4.60
2023-02-14T01:37:45.894Z,4.59
2023-02-14T01:40:13.407Z,4.56
2023-02-14T01:42:40.076Z,4.48
2023-02-14T01:45:16.657Z,4.39
2023-02-14T01:47:44.609Z,4.33
2023-02-14T01:50:32.831Z,4.34
2023-02-14T01:53:02.261Z,4.34
2023-02-14T01:55:30.141Z,4.33
2023-02-14T01:57:59.681Z,4.34
2023-02-14T02:00:45.273Z,4.33
2023-02-14T02:03:13.552Z,4.31
2023-02-14T02:05:46.160Z,4.32
2023-02-14T02:08:13.420Z,4.33
2023-02-14T02:10:39.880Z,4.31
2023-02-14T02:13:08.690Z,4.27
2023-02-14T02:15:45.505Z,4.23
2023-02-14T02:18:19.422Z,4.29
2023-02-14T02:20:54.957Z,4.27
2023-02-14T02:23:33.164Z,4.26
2023-02-14T02:26:11.855Z,4.13
2023-02-14T02:29:00.725Z,4.13
2023-02-14T02:31:46.021Z,4.08
2023-02-14T02:34:30.142Z,4.01
2023-02-14T02:37:15.068Z,3.99
2023-02-14T02:40:00.169Z,3.91
2023-02-14T02:42:43.669Z,3.88
2023-02-14T02:45:25.841Z,3.84
2023-02-14T02:48:06.757Z,3.76
2023-02-14T02:50:58.364Z,3.70
2023-02-14T02:53:33.815Z,3.65
2023-02-14T02:56:28.298Z,3.49
2023-02-14T02:58:57.236Z,3.46
2023-02-14T03:01:26.602Z,3.41
2023-02-14T03:04:14.749Z,3.41
2023-02-14T03:06:41.298Z,3.33
2023-02-14T03:09:12.072Z,3.32
2023-02-14T03:11:42.237Z,3.25
2023-02-14T03:14:19.089Z,3.23
2023-02-14T03:17:04.310Z,3.22
2023-02-14T03:19:36.638Z,3.17
2023-02-14T03:22:09.041Z,3.13
2023-02-14T03:24:44.534Z,3.13
2023-02-14T03:27:10.939Z,3.10
2023-02-14T03:29:56.736Z,3.11
2023-02-14T03:32:31.249Z,3.09
2023-02-14T03:35:00.599Z,3.02
2023-02-14T03:37:31.467Z,2.97
2023-02-14T03:39:57.870Z,2.88
2023-02-14T03:42:45.491Z,2.83
2023-02-14T03:45:13.893Z,2.79
2023-02-14T03:47:42.273Z,2.78
2023-02-14T03:50:10.895Z,2.72
2023-02-14T03:52:38.148Z,2.70
2023-02-14T03:55:07.027Z,2.73
2023-02-14T03:57:38.406Z,2.74
2023-02-14T04:00:05.231Z,2.75
2023-02-14T04:02:34.885Z,2.72
2023-02-14T04:05:03.029Z,2.76
2023-02-14T04:07:29.357Z,2.82
2023-02-14T04:09:55.821Z,2.86
2023-02-14T04:12:36.872Z,2.87
2023-02-14T04:15:04.504Z,2.90
2023-02-14T04:17:49.723Z,2.94
2023-02-14T04:20:16.058Z,2.95
2023-02-14T04:22:42.451Z,2.96
2023-02-14T04:25:08.880Z,2.95
2023-02-14T04:27:35.338Z,2.97
2023-02-14T04:30:01.905Z,2.92
2023-02-14T04:32:28.350Z,2.91
2023-02-14T04:34:54.793Z,2.93
2023-02-14T04:37:21.282Z,2.91
2023-02-14T04:39:47.862Z,2.87
2023-02-14T04:42:14.355Z,2.84
2023-02-14T04:44:41.054Z,2.79
2023-02-14T04:47:07.953Z,2.79
2023-02-14T04:49:34.520Z,2.76
2023-02-14T04:52:01.377Z,2.71
2023-02-14T04:54:27.834Z,2.59
2023-02-14T04:56:54.299Z,2.48
2023-02-14T04:59:20.916Z,2.43
2023-02-14T05:01:47.294Z,2.42
2023-02-14T05:04:13.689Z,2.39
2023-02-14T05:06:40.232Z,2.36
2023-02-14T05:09:06.643Z,2.34
2023-02-14T05:11:33.323Z,2.21
2023-02-14T05:13:59.746Z,2.23
2023-02-14T05:16:26.303Z,2.18
2023-02-14T05:18:52.804Z,2.05
2023-02-14T05:21:19.269Z,1.95
2023-02-14T05:23:45.817Z,1.78
2023-02-14T05:26:12.270Z,1.89
2023-02-14T05:28:40.882Z,1.84
2023-02-14T05:31:07.604Z,1.74
2023-02-14T05:33:33.934Z,1.71
2023-02-14T05:36:03.368Z,1.65
2023-02-14T05:38:30.271Z,1.56
2023-02-14T05:40:57.124Z,1.72
2023-02-14T05:43:23.710Z,1.69
2023-02-14T05:45:50.094Z,1.72
2023-02-14T05:48:16.540Z,1.65
2023-02-14T05:50:43.065Z,1.59
2023-02-14T05:53:09.542Z,1.59
2023-02-14T05:55:35.993Z,1.66
2023-02-14T05:58:02.831Z,1.70
2023-02-14T06:00:29.462Z,1.68
2023-02-14T06:02:55.940Z,1.71
2023-02-14T06:05:22.277Z,1.78
2023-02-14T06:07:50.673Z,1.81
2023-02-14T06:10:17.981Z,1.81
2023-02-14T06:12:44.605Z,1.76
2023-02-14T06:15:11.162Z,1.77
2023-02-14T06:17:37.561Z,1.76
2023-02-14T06:20:04.319Z,1.76
2023-02-14T06:22:30.868Z,1.74
2023-02-14T06:24:57.365Z,1.72
2023-02-14T06:27:23.718Z,1.76
2023-02-14T06:29:50.186Z,1.83
2023-02-14T06:32:16.902Z,1.86
2023-02-14T06:34:43.514Z,1.86
2023-02-14T06:37:10.082Z,1.82
2023-02-14T06:39:36.519Z,1.81
2023-02-14T06:42:03.072Z,1.80
2023-02-14T06:44:29.500Z,1.77
2023-02-14T06:46:56.038Z,1.74
2023-02-14T06:49:22.389Z,1.71
2023-02-14T06:51:48.715Z,1.58
2023-02-14T06:54:15.166Z,1.54
2023-02-14T06:56:41.852Z,1.56
2023-02-14T06:59:08.425Z,1.54
2023-02-14T07:01:34.752Z,1.55
2023-02-14T07:04:01.317Z,1.55
2023-02-14T07:06:27.820Z,1.54
2023-02-14T07:08:54.224Z,1.66
2023-02-14T07:11:20.920Z,1.69
2023-02-14T07:13:49.391Z,1.70
2023-02-14T07:16:16.116Z,1.71
2023-02-14T07:18:42.658Z,1.69
2023-02-14T07:21:09.079Z,1.69
2023-02-14T07:23:36.072Z,1.64
2023-02-14T07:26:02.421Z,1.78
2023-02-14T07:28:30.365Z,1.68
2023-02-14T07:31:01.294Z,1.69
2023-02-14T07:33:27.967Z,1.74
2023-02-14T07:35:54.568Z,1.75
2023-02-14T07:38:21.025Z,1.89
2023-02-14T07:40:47.416Z,2.20
2023-02-14T07:43:13.802Z,2.52
2023-02-14T07:45:40.151Z,2.70
2023-02-14T07:48:07.309Z,2.99
2023-02-14T07:50:33.672Z,3.25
2023-02-14T07:53:00.118Z,3.28
2023-02-14T07:55:26.497Z,3.25
2023-02-14T07:57:52.898Z,3.14
2023-02-14T08:00:19.554Z,3.05
2023-02-14T08:02:45.940Z,3.01
2023-02-14T08:05:12.440Z,2.85
2023-02-14T08:07:38.866Z,2.85
2023-02-14T08:10:05.648Z,3.02
2023-02-14T08:12:50.970Z,3.24
2023-02-14T08:15:36.144Z,3.56
2023-02-14T08:18:02.841Z,3.81
2023-02-14T08:20:29.236Z,3.89
2023-02-14T08:22:56.064Z,3.96
2023-02-14T08:25:22.473Z,4.12
2023-02-14T08:27:48.870Z,4.30
2023-02-14T08:30:15.496Z,4.46
2023-02-14T08:32:42.118Z,4.59
2023-02-14T08:35:08.869Z,4.81
2023-02-14T08:37:35.288Z,4.99
2023-02-14T08:40:01.800Z,5.19
2023-02-14T08:42:28.265Z,5.30
2023-02-14T08:44:54.648Z,5.29
2023-02-14T08:47:21.029Z,5.24
2023-02-14T08:49:47.467Z,5.29
2023-02-14T08:52:13.874Z,5.35
2023-02-14T08:54:40.301Z,5.46
2023-02-14T08:57:06.779Z,5.62
2023-02-14T08:59:33.239Z,5.59
2023-02-14T09:01:59.814Z,5.69
2023-02-14T09:04:26.235Z,5.78
2023-02-14T09:06:52.625Z,5.82
2023-02-14T09:09:19.556Z,5.96
2023-02-14T09:11:46.010Z,6.09
2023-02-14T09:14:12.447Z,6.33
2023-02-14T09:16:39.603Z,6.53
2023-02-14T09:19:06.027Z,6.74
2023-02-14T09:21:34.130Z,7.06
2023-02-14T09:24:00.469Z,7.29
2023-02-14T09:26:27.430Z,7.41
2023-02-14T09:28:53.836Z,7.73
2023-02-14T09:31:21.707Z,7.91
2023-02-14T09:33:49.003Z,8.27
2023-02-14T09:36:21.252Z,8.43
2023-02-14T09:38:47.773Z,8.65
2023-02-14T09:41:32.848Z,8.89
2023-02-14T09:43:59.229Z,9.26
2023-02-14T09:46:26.504Z,9.51
2023-02-14T09:48:53.601Z,9.68
2023-02-14T09:51:22.046Z,9.98
2023-02-14T09:53:54.013Z,10.24
2023-02-14T09:56:24.609Z,10.47
2023-02-14T09:59:11.208Z,10.68
2023-02-14T10:01:48.049Z,10.89
2023-02-14T10:04:25.229Z,11.04
2023-02-14T10:06:56.286Z,11.01
2023-02-14T10:09:31.646Z,11.41
2023-02-14T10:11:59.808Z,11.62
2023-02-14T10:14:29.687Z,11.88
2023-02-14T10:17:15.515Z,12.07
2023-02-14T10:19:44.983Z,12.06
2023-02-14T10:22:16.256Z,12.19
2023-02-14T10:24:48.909Z,12.41
2023-02-14T10:27:22.906Z,12.87
2023-02-14T10:29:49.421Z,12.91
2023-02-14T10:32:19.618Z,13.06
2023-02-14T10:34:48.005Z,13.28
2023-02-14T10:37:42.405Z,13.37
2023-02-14T10:40:38.118Z,13.43
2023-02-14T10:43:19.656Z,13.74
2023-02-14T10:45:50.765Z,13.86
2023-02-14T10:48:34.511Z,13.71
2023-02-14T10:51:06.861Z,13.96
2023-02-14T10:53:51.906Z,14.17
2023-02-14T10:56:24.977Z,14.46
2023-02-14T10:58:52.471Z,14.78
2023-02-14T11:01:19.638Z,15.03
2023-02-14T11:03:58.462Z,15.04
2023-02-14T11:06:24.947Z,15.08
2023-02-14T11:08:51.316Z,15.08
2023-02-14T11:11:36.030Z,15.42
2023-02-14T11:14:22.797Z,15.20
2023-02-14T11:16:51.889Z,15.35
2023-02-14T11:19:27.723Z,15.41
2023-02-14T11:21:55.681Z,15.53
2023-02-14T11:24:35.729Z,15.84
2023-02-14T11:27:04.282Z,16.13
2023-02-14T11:29:33.079Z,16.15
2023-02-14T11:32:07.754Z,16.10
2023-02-14T11:34:36.817Z,16.30
2023-02-14T11:37:04.304Z,16.61
2023-02-14T11:39:32.511Z,16.70
2023-02-14T11:42:00.555Z,16.55
2023-02-14T11:44:28.520Z,16.66
2023-02-14T11:46:56.344Z,16.52
2023-02-14T11:49:24.710Z,16.81
2023-02-14T11:51:52.102Z,16.97
2023-02-14T11:54:44.964Z,16.76
2023-02-14T11:57:22.998Z,16.85
2023-02-14T11:59:51.919Z,16.93
2023-02-14T12:02:31.576Z,17.00
2023-02-14T12:05:03.279Z,16.96
2023-02-14T12:07:31.903Z,16.91
2023-02-14T12:10:15.595Z,17.11
2023-02-14T12:13:05.099Z,17.03
2023-02-14T12:15:34.575Z,17.28
2023-02-14T12:18:17.661Z,17.08
2023-02-14T12:20:56.669Z,16.93
2023-02-14T12:23:30.133Z,17.11
2023-02-14T12:26:00.191Z,17.30
2023-02-14T12:28:31.446Z,17.10
2023-02-14T12:30:58.574Z,17.39
2023-02-14T12:33:25.965Z,17.35
2023-02-14T12:36:03.505Z,17.33
2023-02-14T12:38:48.233Z,17.32
2023-02-14T12:41:23.516Z,17.74
2023-02-14T12:43:52.450Z,17.72
2023-02-14T12:46:18.842Z,17.80
2023-02-14T12:48:54.283Z,17.77
2023-02-14T12:51:29.551Z,17.30
2023-02-14T12:54:16.415Z,17.23
2023-02-14T12:57:04.782Z,17.44
2023-02-14T12:59:38.546Z,17.08
2023-02-14T13:02:20.233Z,16.83
2023-02-14T13:05:13.043Z,16.73
2023-02-14T13:08:14.813Z,17.00
2023-02-14T13:10:52.144Z,16.92
2023-02-14T13:13:37.506Z,16.77
2023-02-14T13:16:15.393Z,16.76
2023-02-14T13:18:47.623Z,16.91
2023-02-14T13:21:16.540Z,16.64
2023-02-14T13:23:55.720Z,16.96
2023-02-14T13:26:24.598Z,16.60
2023-02-14T13:28:52.878Z,16.86
2023-02-14T13:31:20.709Z,16.92
2023-02-14T13:33:52.508Z,16.83
2023-02-14T13:36:19.654Z,16.71
2023-02-14T13:38:48.711Z,16.79
2023-02-14T13:41:15.627Z,16.51
2023-02-14T13:43:48.209Z,16.60
2023-02-14T13:46:16.628Z,16.43
2023-02-14T13:48:55.076Z,16.26
2023-02-14T13:51:21.536Z,15.94
2023-02-14T13:53:48.888Z,16.00
2023-02-14T13:56:15.375Z,15.88
2023-02-14T13:58:56.370Z,16.32
2023-02-14T14:01:34.034Z,16.17
2023-02-14T14:04:23.601Z,16.11
2023-02-14T14:07:05.053Z,15.99
2023-02-14T14:09:40.283Z,15.78
2023-02-14T14:12:26.631Z,16.06
2023-02-14T14:15:05.326Z,16.15
2023-02-14T14:17:33.269Z,16.31
2023-02-14T14:20:00.949Z,16.37
2023-02-14T14:22:27.775Z,16.57
2023-02-14T14:24:59.242Z,16.31
2023-02-14T14:27:29.189Z,16.47
2023-02-14T14:29:58.505Z,16.45
2023-02-14T14:32:27.961Z,16.65
2023-02-14T14:34:56.260Z,16.98
2023-02-14T14:37:25.137Z,16.48
2023-02-14T14:39:52.888Z,16.37
2023-02-14T14:42:19.993Z,16.39
2023-02-14T14:45:01.743Z,16.39
2023-02-14T14:47:31.191Z,16.42
2023-02-14T14:50:07.318Z,15.91
2023-02-14T14:52:36.199Z,15.91
2023-02-14T14:55:04.606Z,15.78
2023-02-14T14:57:31.117Z,15.46
2023-02-14T15:00:24.352Z,15.40
2023-02-14T15:03:02.325Z,15.97
2023-02-14T15:05:32.020Z,15.91
2023-02-14T15:08:01.443Z,16.05
2023-02-14T15:10:30.510Z,16.07
2023-02-14T15:13:17.357Z,16.48
2023-02-14T15:15:52.843Z,16.05
2023-02-14T15:18:21.093Z,15.84
2023-02-14T15:20:51.156Z,16.13
2023-02-14T15:23:19.998Z,15.82
2023-02-14T15:25:47.313Z,15.85
2023-02-14T15:28:25.589Z,15.83
2023-02-14T15:30:55.181Z,15.83
2023-02-14T15:33:21.757Z,15.73
2023-02-14T15:35:48.225Z,15.99
2023-02-14T15:38:14.876Z,16.28
2023-02-14T15:40:42.752Z,15.99
2023-02-14T15:43:22.158Z,15.78
2023-02-14T15:45:51.165Z,15.75
2023-02-14T15:48:37.875Z,15.49
2023-02-14T15:51:06.257Z,15.37
2023-02-14T15:53:41.922Z,15.17
2023-02-14T15:56:18.173Z,15.02
2023-02-14T15:58:45.197Z,14.82
2023-02-14T16:01:11.968Z,14.41
2023-02-14T16:03:40.933Z,14.28
2023-02-14T16:06:13.135Z,14.19
2023-02-14T16:08:40.290Z,14.00
2023-02-14T16:11:09.646Z,14.00
2023-02-14T16:13:36.960Z,13.97
2023-02-14T16:16:04.704Z,13.84
2023-02-14T16:18:40.531Z,13.69
2023-02-14T16:21:19.205Z,13.66
2023-02-14T16:24:04.202Z,13.60
2023-02-14T16:26:31.171Z,13.50
2023-02-14T16:28:57.600Z,13.36
2023-02-14T16:31:25.352Z,13.35
2023-02-14T16:33:51.871Z,13.22
2023-02-14T16:36:31.463Z,13.23
2023-02-14T16:38:58.821Z,13.21
2023-02-14T16:41:27.343Z,13.22
2023-02-14T16:43:54.402Z,13.18
2023-02-14T16:46:22.173Z,13.16
2023-02-14T16:48:52.506Z,13.15
2023-02-14T16:51:20.672Z,13.12
2023-02-14T16:53:47.083Z,13.02
2023-02-14T16:56:16.939Z,12.94
2023-02-14T16:58:43.571Z,12.87
2023-02-14T17:01:10.070Z,12.81
2023-02-14T17:03:36.532Z,12.75
2023-02-14T17:06:03.097Z,12.69
2023-02-14T17:08:29.822Z,12.57
2023-02-14T17:10:57.297Z,12.48
2023-02-14T17:13:27.695Z,12.34
2023-02-14T17:15:55.205Z,12.22
2023-02-14T17:18:23.637Z,12.07
2023-02-14T17:20:50.132Z,11.94
2023-02-14T17:23:16.772Z,11.87
2023-02-14T17:25:43.304Z,11.74
2023-02-14T17:28:10.752Z,11.68
2023-02-14T17:30:37.167Z,11.62
2023-02-14T17:33:03.591Z,11.52
2023-02-14T17:35:30.902Z,11.43
2023-02-14T17:37:57.452Z,11.34
2023-02-14T17:40:23.810Z,11.26
2023-02-14T17:42:50.356Z,11.14
2023-02-14T17:45:16.754Z,11.08
2023-02-14T17:47:45.038Z,10.97
2023-02-14T17:50:12.954Z,10.89
2023-02-14T17:52:39.819Z,10.82
2023-02-14T17:55:07.077Z,10.80
2023-02-14T17:57:33.476Z,10.77
2023-02-14T17:59:59.921Z,10.71
2023-02-14T18:02:26.598Z,10.65
2023-02-14T18:04:53.016Z,10.59
2023-02-14T18:07:19.387Z,10.51
2023-02-14T18:09:45.716Z,10.37
2023-02-14T18:12:14.968Z,10.23
2023-02-14T18:14:41.984Z,10.04
2023-02-14T18:17:08.392Z,9.90
2023-02-14T18:19:34.839Z,9.74
2023-02-14T18:22:01.252Z,9.67
2023-02-14T18:24:27.681Z,9.56
2023-02-14T18:26:55.356Z,9.50
2023-02-14T18:29:22.729Z,9.47
2023-02-14T18:31:49.332Z,9.41
2023-02-14T18:34:15.929Z,9.32
2023-02-14T18:36:42.452Z,9.22
2023-02-14T18:39:09.276Z,9.18
2023-02-14T18:41:35.837Z,9.17
2023-02-14T18:44:02.263Z,9.18
2023-02-14T18:46:33.740Z,9.19
2023-02-14T18:49:00.135Z,9.18
2023-02-14T18:51:27.641Z,9.15
2023-02-14T18:53:55.582Z,9.11
2023-02-14T18:56:23.681Z,9.04
2023-02-14T18:58:52.826Z,8.94
2023-02-14T19:01:24.310Z,8.85
2023-02-14T19:03:51.622Z,8.74
2023-02-14T19:06:18.867Z,8.63
2023-02-14T19:08:45.372Z,8.57
2023-02-14T19:11:12.992Z,8.44
2023-02-14T19:13:39.891Z,8.36
2023-02-14T19:16:11.224Z,8.27
2023-02-14T19:18:37.825Z,8.17
2023-02-14T19:21:14.438Z,8.12
2023-02-14T19:23:44.076Z,8.08
2023-02-14T19:26:15.011Z,8.06
2023-02-14T19:28:41.920Z,8.04
2023-02-14T19:31:08.947Z,7.91
2023-02-14T19:33:42.800Z,7.81
2023-02-14T19:36:12.821Z,7.70
2023-02-14T19:38:40.020Z,7.61
2023-02-14T19:41:06.606Z,7.56
2023-02-14T19:43:33.027Z,7.51
2023-02-14T19:45:59.462Z,7.49
2023-02-14T19:48:25.984Z,7.49
2023-02-14T19:50:52.469Z,7.48
2023-02-14T19:53:18.883Z,7.46
2023-02-14T19:55:45.629Z,7.33
2023-02-14T19:58:12.057Z,7.21
2023-02-14T20:00:38.599Z,7.08
2023-02-14T20:03:06.124Z,7.00
2023-02-14T20:05:32.665Z,6.95
2023-02-14T20:07:59.381Z,6.95
2023-02-14T20:10:25.723Z,6.97
2023-02-14T20:12:52.337Z,6.98
2023-02-14T20:15:18.854Z,6.93
2023-02-14T20:17:45.327Z,6.91
2023-02-14T20:20:13.734Z,6.82
2023-02-14T20:22:40.799Z,6.78
2023-02-14T20:25:08.904Z,6.76
2023-02-14T20:27:38.364Z,6.75
2023-02-14T20:30:06.313Z,6.71
2023-02-14T20:32:33.750Z,6.67
2023-02-14T20:35:00.100Z,6.62
2023-02-14T20:37:26.588Z,6.58
2023-02-14T20:39:53.052Z,6.58
2023-02-14T20:42:19.567Z,6.56
2023-02-14T20:44:46.192Z,6.54
2023-02-14T20:47:12.924Z,6.53
2023-02-14T20:49:39.928Z,6.53
2023-02-14T20:52:06.488Z,6.49
2023-02-14T20:54:32.982Z,6.43
2023-02-14T20:56:59.501Z,6.34
2023-02-14T20:59:29.106Z,6.29
2023-02-14T21:01:59.184Z,6.26
2023-02-14T21:04:26.108Z,6.25
2023-02-14T21:06:52.561Z,6.27
2023-02-14T21:09:20.652Z,6.25
2023-02-14T21:11:47.251Z,6.23
2023-02-14T21:14:13.684Z,6.19
2023-02-14T21:16:40.127Z,6.13
2023-02-14T21:19:06.782Z,6.01
2023-02-14T21:21:36.860Z,5.97
2023-02-14T21:24:04.812Z,6.00
2023-02-14T21:26:31.551Z,6.01
2023-02-14T21:28:58.117Z,6.00
2023-02-14T21:31:27.725Z,5.98
2023-02-14T21:33:55.869Z,5.99
2023-02-14T21:36:23.536Z,5.97
2023-02-14T21:38:50.391Z,5.98
2023-02-14T21:41:18.479Z,5.98
2023-02-14T21:43:45.587Z,5.93
2023-02-14T21:46:13.688Z,5.90
2023-02-14T21:48:58.994Z,5.79
2023-02-14T21:51:25.687Z,5.73
2023-02-14T21:53:52.536Z,5.76
2023-02-14T21:56:19.784Z,5.71
2023-02-14T21:58:47.666Z,5.60
2023-02-14T22:01:15.550Z,5.51
2023-02-14T22:03:42.103Z,5.48
2023-02-14T22:06:08.778Z,5.44
2023-02-14T22:08:35.334Z,5.42
2023-02-14T22:11:05.498Z,5.39
2023-02-14T22:13:31.972Z,5.37
2023-02-14T22:16:09.561Z,5.34
2023-02-14T22:18:36.257Z,5.24
2023-02-14T22:21:03.811Z,5.15
2023-02-14T22:23:31.075Z,5.09
2023-02-14T22:26:06.976Z,5.00
2023-02-14T22:28:33.358Z,5.02
2023-02-14T22:31:00.609Z,5.07
2023-02-14T22:33:27.510Z,5.12
2023-02-14T22:35:54.608Z,5.15
2023-02-14T22:38:21.021Z,5.15
2023-02-14T22:40:47.387Z,5.14
2023-02-14T22:43:14.006Z,5.14
2023-02-14T22:45:40.641Z,5.10
2023-02-14T22:48:08.630Z,5.08
2023-02-14T22:50:35.681Z,5.04
2023-02-14T22:53:03.183Z,5.02
2023-02-14T22:55:30.070Z,5.00
2023-02-14T22:57:56.717Z,4.99
2023-02-14T23:00:23.399Z,5.00
2023-02-14T23:02:49.861Z,4.99
2023-02-14T23:05:17.000Z,4.97
2023-02-14T23:07:43.404Z,4.91
2023-02-14T23:10:10.215Z,4.78
2023-02-14T23:12:55.587Z,4.71
2023-02-14T23:15:40.805Z,4.66
2023-02-14T23:18:29.476Z,4.66
2023-02-14T23:21:14.624Z,4.69
2023-02-14T23:23:41.308Z,4.71
2023-02-14T23:26:07.744Z,4.72
2023-02-14T23:28:34.103Z,4.67
2023-02-14T23:31:01.343Z,4.64
2023-02-14T23:33:27.861Z,4.62
2023-02-14T23:35:54.335Z,4.60
2023-02-14T23:38:20.695Z,4.59
2023-02-14T23:41:05.656Z,4.57
2023-02-14T23:43:32.207Z,4.48
2023-02-14T23:46:01.860Z,4.39
2023-02-14T23:48:28.851Z,4.30
2023-02-14T23:50:58.686Z,4.20
2023-02-14T23:53:25.103Z,4.14
2023-02-14T23:55:51.668Z,4.12
2023-02-14T23:58:18.073Z,4.08
